Bradford County (N27)
Towanda, PA
Field Elevation: 730
Lat: 41°44.40N  Long: 76°26.83W
CTAF/Unicom Freq: 123.0000
   
     For Weather-by-Phone, call (570) 265-1024
Weather Advisories
2022-05-21   21:15 Z
Altimeter 29.99" Hg
Wind 210° @ 10 KT
Gusts 19 KT
Visibility 10 SM
Ceiling CLR
Temperature 32° C (90° F)
Dewpoint 17° C (63° F)
Relative Humidity 39%
Density Altitude 2,800 feet
Condensation Altitude 8,500 feet
Heat Index: 32° C (90° F)
Wind and Runways
Indicated Runway = 23
Headwind = 9 kt
Crosswind = 3 kt
History
 
 
 
More Info
All DigiWx sites map
NOAA Forecast
 
Airport IQ 5010
(LHV) Lock Haven
(PS81) Robert Packer Hospital
 
about DigiWx
 
FAA Disclaimer: The data displayed is for advisory purposes only and is not to be used for flight planning or operations. For official data, please call (570) 265-1024 to hear the current automated AWOS voice message.
  METAR N27 212115Z AUTO 21010G19KT 10 SM CLR 32/17 A2999